Time;durP1;ratioP1;P1;durP2;ratioP2;P2;SDS_P1;SDS_P2;PMS_P1;PMS_P2;Temp;Humidity;BMP_temperature;BMP_pressure;BME280_temperature;BME280_humidity;BME280_pressure;Samples;Min_cycle;Max_cycle;Signal;HPM_P1;HPM_P2
2022/07/05 00:00:30;;;;;;;;;;;;;;;30.04;45.58;98609.44;2091376;28;19935;-50
2022/07/05 00:01:32;;;;;;;;;;;;;;;30.03;45.66;98616.00;2091896;28;19944;-49
2022/07/05 00:02:33;;;;;;;;;;;;;;;30.03;45.69;98616.00;2089502;28;19936;-49
2022/07/05 00:03:34;;;;;;;;;;;;;;;30.04;45.59;98614.91;2088600;28;19924;-51
2022/07/05 00:04:35;;;;;;;;;;;;;;;30.04;45.50;98616.81;2089182;28;20031;-48
2022/07/05 00:05:36;;;;;;;;;;;;;;;30.04;45.52;98612.16;2090715;28;19928;-52
2022/07/05 00:07:17;;;;;;;;;;;;;;;30.03;45.61;98616.00;2084976;28;20815;-48
2022/07/05 00:07:59;;;;;;;;;;;;;;;30.02;45.67;98611.63;2090254;28;19990;-52
2022/07/05 00:09:00;;;;;;;;;;;;;;;30.04;45.57;98616.81;2089876;28;20289;-50
2022/07/05 00:10:01;;;;;;;;;;;;;;;30.02;45.65;98614.34;2091645;28;19928;-52
2022/07/05 00:11:02;;;;;;;;;;;;;;;30.02;45.40;98622.56;2090093;28;20020;-52
2022/07/05 00:12:03;;;;;;;;;;;;;;;30.03;45.58;98615.16;2089858;28;19928;-53
2022/07/05 00:13:05;;;;;;;;;;;;;;;30.03;45.59;98616.00;2089570;28;20012;-50
2022/07/05 00:14:06;;;;;;;;;;;;;;;30.02;45.39;98614.34;2090366;28;20374;-50
2022/07/05 00:15:08;;;;;;;;;;;;;;;30.01;45.69;98618.19;2089627;28;19933;-54
2022/07/05 00:16:10;;;;;;;;;;;;;;;30.01;45.40;98618.19;2090955;28;19932;-50
2022/07/05 00:17:13;;;;;;;;;;;;;;;30.00;45.69;98619.28;2089115;28;19940;-48
2022/07/05 00:18:15;;;;;;;;;;;;;;;29.99;45.83;98614.91;2093067;28;19929;-51
2022/07/05 00:19:16;;;;;;;;;;;;;;;30.00;45.37;98622.00;2092147;28;20482;-52
2022/07/05 00:20:17;;;;;;;;;;;;;;;30.00;45.67;98621.19;2092952;28;19963;-51
2022/07/05 00:21:19;;;;;;;;;;;;;;;29.99;45.56;98619.56;2090967;28;20364;-54
2022/07/05 00:22:20;;;;;;;;;;;;;;;30.00;45.61;98626.66;2086623;28;19935;-53
2022/07/05 00:23:22;;;;;;;;;;;;;;;29.99;45.71;98625.84;2088834;28;19924;-52
2022/07/05 00:24:22;;;;;;;;;;;;;;;29.99;45.67;98625.84;2092887;28;19936;-53
2022/07/05 00:25:24;;;;;;;;;;;;;;;29.99;45.75;98619.56;2091946;28;19928;-52
2022/07/05 00:26:25;;;;;;;;;;;;;;;29.99;45.83;98623.13;2091260;28;19931;-49
2022/07/05 00:27:26;;;;;;;;;;;;;;;29.98;45.88;98632.44;2089572;28;19951;-48
2022/07/05 00:28:27;;;;;;;;;;;;;;;29.97;45.62;98622.56;2091132;28;20620;-49
2022/07/05 00:29:29;;;;;;;;;;;;;;;29.98;45.63;98623.41;2090518;28;19935;-47
2022/07/05 00:30:29;;;;;;;;;;;;;;;29.96;45.81;98626.41;2091426;28;19935;-48
2022/07/05 00:31:31;;;;;;;;;;;;;;;29.96;45.73;98623.69;2089103;28;19925;-48
2022/07/05 00:32:33;;;;;;;;;;;;;;;29.97;45.75;98622.56;2090576;28;20559;-52
2022/07/05 00:33:34;;;;;;;;;;;;;;;29.98;45.72;98617.94;2090931;28;19985;-50
2022/07/05 00:34:35;;;;;;;;;;;;;;;29.98;45.75;98621.50;2092122;28;19924;-48
2022/07/05 00:35:37;;;;;;;;;;;;;;;29.99;45.77;98625.84;2090176;28;19932;-49
2022/07/05 00:36:37;;;;;;;;;;;;;;;29.98;45.63;98617.94;2091696;28;19933;-48
2022/07/05 00:37:39;;;;;;;;;;;;;;;29.97;45.61;98617.09;2090244;28;20676;-49
2022/07/05 00:38:39;;;;;;;;;;;;;;;29.97;45.77;98622.56;2092246;28;19933;-49
2022/07/05 00:39:41;;;;;;;;;;;;;;;29.98;45.77;98616.03;2092445;28;20046;-51
2022/07/05 00:40:43;;;;;;;;;;;;;;;29.97;45.87;98621.75;2091944;28;19928;-49
2022/07/05 00:41:43;;;;;;;;;;;;;;;29.97;45.76;98610.81;2086510;28;19932;-49
2022/07/05 00:42:45;;;;;;;;;;;;;;;29.96;46.02;98609.19;2092945;28;20579;-49
2022/07/05 00:43:52;;;;;;;;;;;;;;;29.95;45.59;98608.38;2091000;28;19928;-52
2022/07/05 00:44:54;;;;;;;;;;;;;;;29.94;45.70;98609.47;2089661;28;19925;-54
2022/07/05 00:45:54;;;;;;;;;;;;;;;29.95;45.76;98607.53;2090723;28;20378;-49
2022/07/05 00:46:56;;;;;;;;;;;;;;;29.94;45.87;98605.91;2090443;28;20111;-53
2022/07/05 00:47:59;;;;;;;;;;;;;;;29.95;45.85;98602.06;2090240;28;19928;-54
2022/07/05 00:49:00;;;;;;;;;;;;;;;29.95;45.95;98605.66;2088635;28;19939;-52
2022/07/05 00:50:01;;;;;;;;;;;;;;;29.94;45.77;98609.47;2091517;28;19928;-52
2022/07/05 00:51:02;;;;;;;;;;;;;;;29.95;45.64;98607.53;2085064;28;20298;-54
2022/07/05 00:52:05;;;;;;;;;;;;;;;29.93;45.73;98605.09;2086342;28;20035;-51
2022/07/05 00:53:06;;;;;;;;;;;;;;;29.93;45.68;98594.16;2091615;28;20638;-47
2022/07/05 00:54:07;;;;;;;;;;;;;;;29.96;45.91;98601.00;2090747;28;19936;-50
2022/07/05 00:55:09;;;;;;;;;;;;;;;29.93;45.85;98594.16;2091090;28;20378;-52
2022/07/05 00:56:10;;;;;;;;;;;;;;;29.94;45.73;98606.72;2091441;28;19936;-52
2022/07/05 00:57:12;;;;;;;;;;;;;;;29.94;45.72;98600.44;2092061;28;19924;-50
2022/07/05 00:58:12;;;;;;;;;;;;;;;29.94;45.66;98600.44;2086493;28;19929;-52
2022/07/05 00:59:14;;;;;;;;;;;;;;;29.93;45.74;98599.63;2088127;28;19929;-47
2022/07/05 01:00:16;;;;;;;;;;;;;;;29.92;45.90;98606.22;2090122;28;19929;-51
2022/07/05 01:01:17;;;;;;;;;;;;;;;29.94;45.83;98603.19;2090320;28;20563;-50
2022/07/05 01:02:22;;;;;;;;;;;;;;;29.92;45.65;98600.75;2090634;28;19928;-49
2022/07/05 01:03:24;;;;;;;;;;;;;;;29.91;45.74;98598.28;2090195;28;19928;-51
2022/07/05 01:04:26;;;;;;;;;;;;;;;29.92;45.75;98600.75;2089963;28;20425;-51
2022/07/05 01:05:26;;;;;;;;;;;;;;;29.92;46.03;98603.47;2091559;28;19967;-49
2022/07/05 01:06:28;;;;;;;;;;;;;;;29.92;45.89;98603.47;2089411;28;20497;-49
2022/07/05 01:07:29;;;;;;;;;;;;;;;29.90;45.94;98600.19;2091071;28;19955;-52
2022/07/05 01:08:31;;;;;;;;;;;;;;;29.90;45.76;98594.72;2091372;28;19971;-51
2022/07/05 01:09:32;;;;;;;;;;;;;;;29.90;45.94;98597.47;2091697;28;19928;-48
2022/07/05 01:10:34;;;;;;;;;;;;;;;29.90;45.82;98594.72;2090800;28;20370;-50
2022/07/05 01:11:35;;;;;;;;;;;;;;;29.90;46.01;98588.44;2091828;28;20386;-49
2022/07/05 01:12:38;;;;;;;;;;;;;;;29.90;45.84;98597.47;2091617;28;19967;-49
2022/07/05 01:13:39;;;;;;;;;;;;;;;29.89;45.87;98593.06;2090398;28;19935;-49
2022/07/05 01:14:42;;;;;;;;;;;;;;;29.89;45.76;98592.25;2090460;28;19967;-48
2022/07/05 01:15:42;;;;;;;;;;;;;;;29.89;45.88;98593.06;2088968;28;20023;-51
2022/07/05 01:16:44;;;;;;;;;;;;;;;29.89;45.84;98593.06;2090105;28;20027;-50
2022/07/05 01:17:45;;;;;;;;;;;;;;;29.88;45.92;98591.44;2090449;28;20762;-53
2022/07/05 01:18:49;;;;;;;;;;;;;;;29.89;45.77;98593.06;2091460;28;20016;-49
2022/07/05 01:19:50;;;;;;;;;;;;;;;29.87;45.75;98592.56;2091508;28;19924;-49
2022/07/05 01:20:51;;;;;;;;;;;;;;;29.89;45.84;98593.06;2092416;28;20048;-47
2022/07/05 01:21:52;;;;;;;;;;;;;;;29.88;45.77;98593.38;2089009;28;19947;-49
2022/07/05 01:22:56;;;;;;;;;;;;;;;29.88;45.72;98596.09;2092655;28;20489;-48
2022/07/05 01:23:57;;;;;;;;;;;;;;;29.88;46.02;98590.63;2093336;28;19932;-50
2022/07/05 01:24:58;;;;;;;;;;;;;;;29.87;45.69;98592.56;2090781;28;20485;-49
2022/07/05 01:26:01;;;;;;;;;;;;;;;29.88;45.95;98590.63;2091471;28;19924;-49
2022/07/05 01:27:02;;;;;;;;;;;;;;;29.87;45.88;98583.53;2090613;28;19924;-48
2022/07/05 01:28:03;;;;;;;;;;;;;;;29.87;45.95;98592.56;2092491;28;20912;-48
2022/07/05 01:29:05;;;;;;;;;;;;;;;29.88;45.93;98596.09;2091034;28;19935;-49
2022/07/05 01:30:06;;;;;;;;;;;;;;;29.87;45.84;98594.47;2092248;28;19943;-48
2022/07/05 01:31:07;;;;;;;;;;;;;;;29.87;46.07;98595.28;2089071;28;19941;-50
2022/07/05 01:32:08;;;;;;;;;;;;;;;29.86;45.98;98593.63;2091796;28;19932;-49
2022/07/05 01:33:10;;;;;;;;;;;;;;;29.87;45.88;98595.28;2091179;28;20697;-51
2022/07/05 01:34:11;;;;;;;;;;;;;;;29.86;45.98;98588.16;2092660;28;19924;-48
2022/07/05 01:35:13;;;;;;;;;;;;;;;29.85;45.94;98589.28;2092433;28;19932;-48
2022/07/05 01:36:14;;;;;;;;;;;;;;;29.85;45.93;98583.81;2091232;28;20539;-53
2022/07/05 01:37:15;;;;;;;;;;;;;;;29.85;46.07;98589.28;2088449;28;19929;-47
2022/07/05 01:38:17;;;;;;;;;;;;;;;29.86;45.92;98590.91;2091258;28;19928;-49
2022/07/05 01:39:19;;;;;;;;;;;;;;;29.84;45.94;98593.13;2090379;28;19974;-50
2022/07/05 01:40:20;;;;;;;;;;;;;;;29.84;45.83;98588.47;2091302;28;19943;-50
2022/07/05 01:41:21;;;;;;;;;;;;;;;29.85;45.89;98589.28;2091157;28;19924;-48
2022/07/05 01:42:22;;;;;;;;;;;;;;;29.84;46.11;98588.47;2091860;28;19929;-49
2022/07/05 01:43:24;;;;;;;;;;;;;;;29.84;46.07;98585.72;2091973;28;19933;-50
2022/07/05 01:44:24;;;;;;;;;;;;;;;29.84;45.86;98591.19;2090187;28;20033;-49
2022/07/05 01:45:39;;;;;;;;;;;;;;;29.85;46.04;98586.53;2092177;28;19928;-49
2022/07/05 01:46:40;;;;;;;;;;;;;;;29.85;45.83;98592.00;2091281;28;20015;-51
2022/07/05 01:47:44;;;;;;;;;;;;;;;29.84;46.02;98585.72;2090534;28;20652;-48
2022/07/05 01:48:45;;;;;;;;;;;;;;;29.84;45.99;98587.66;2092401;28;19975;-48
2022/07/05 01:49:48;;;;;;;;;;;;;;;29.85;45.76;98592.00;2090927;28;20330;-49
2022/07/05 01:50:51;;;;;;;;;;;;;;;29.84;46.00;98584.91;2091978;28;19925;-48
2022/07/05 01:51:56;;;;;;;;;;;;;;;29.84;45.91;98585.72;2090746;28;20393;-50
2022/07/05 01:52:56;;;;;;;;;;;;;;;29.82;46.05;98582.44;2092979;28;20342;-49
2022/07/05 01:53:59;;;;;;;;;;;;;;;29.82;45.88;98585.19;2089824;28;19924;-50
2022/07/05 01:55:01;;;;;;;;;;;;;;;29.83;45.74;98586.81;2091212;28;20298;-47
2022/07/05 01:56:03;;;;;;;;;;;;;;;29.83;46.13;98586.00;2090487;28;20485;-49
2022/07/05 01:57:05;;;;;;;;;;;;;;;29.83;46.16;98583.25;2091613;28;19924;-50
2022/07/05 01:58:07;;;;;;;;;;;;;;;29.83;45.95;98588.72;2092184;28;19929;-47
2022/07/05 01:59:08;;;;;;;;;;;;;;;29.83;45.88;98588.72;2091228;28;19928;-49
2022/07/05 02:00:10;;;;;;;;;;;;;;;29.83;45.83;98586.81;2088390;28;19932;-49
2022/07/05 02:01:11;;;;;;;;;;;;;;;29.82;45.81;98582.44;2088692;28;19924;-47
2022/07/05 02:02:13;;;;;;;;;;;;;;;29.82;46.10;98585.19;2090778;28;19987;-47
2022/07/05 02:03:14;;;;;;;;;;;;;;;29.82;45.94;98587.09;2088921;28;19925;-48
2022/07/05 02:04:17;;;;;;;;;;;;;;;29.83;45.95;98586.00;2081989;28;19928;-47
2022/07/05 02:05:18;;;;;;;;;;;;;;;29.82;46.03;98587.09;2087372;28;20376;-50
2022/07/05 02:06:20;;;;;;;;;;;;;;;29.81;46.18;98586.28;2090864;28;19929;-48
2022/07/05 02:07:21;;;;;;;;;;;;;;;29.82;46.04;98592.56;2084110;28;19932;-51
2022/07/05 02:08:28;;;;;;;;;;;;;;;29.81;46.03;98591.75;2089293;28;19955;-49
2022/07/05 02:09:31;;;;;;;;;;;;;;;29.81;46.13;98590.91;2086047;28;20464;-50
2022/07/05 02:10:31;;;;;;;;;;;;;;;29.81;46.07;98594.47;2084983;28;19940;-49
2022/07/05 02:11:33;;;;;;;;;;;;;;;29.80;46.03;98595.56;2089141;28;19976;-48
2022/07/05 02:12:33;;;;;;;;;;;;;;;29.81;46.03;98593.63;2086767;28;19936;-47
2022/07/05 02:13:35;;;;;;;;;;;;;;;29.81;45.93;98597.22;2086685;28;20599;-46
2022/07/05 02:14:36;;;;;;;;;;;;;;;29.81;45.83;98599.09;2090911;28;20303;-50
2022/07/05 02:15:38;;;;;;;;;;;;;;;29.81;45.97;98599.09;2079462;28;19928;-49
2022/07/05 02:16:39;;;;;;;;;;;;;;;29.81;46.04;98590.91;2085575;28;19932;-49
2022/07/05 02:17:40;;;;;;;;;;;;;;;29.81;46.13;98599.94;2084757;28;19928;-47
2022/07/05 02:18:41;;;;;;;;;;;;;;;29.80;45.85;98601.03;2088718;28;20282;-49
2022/07/05 02:19:42;;;;;;;;;;;;;;;29.81;46.01;98601.84;2090972;28;19925;-47
2022/07/05 02:20:43;;;;;;;;;;;;;;;29.82;46.03;98603.50;2089618;28;20406;-48
2022/07/05 02:21:45;;;;;;;;;;;;;;;29.81;46.15;98605.41;2088765;28;19932;-51
2022/07/05 02:22:45;;;;;;;;;;;;;;;29.82;45.93;98608.97;2091895;28;19943;-49
2022/07/05 02:23:47;;;;;;;;;;;;;;;29.81;45.82;98610.03;2088857;28;19928;-50
2022/07/05 02:24:49;;;;;;;;;;;;;;;29.81;46.00;98607.31;2092749;28;20019;-50
2022/07/05 02:25:51;;;;;;;;;;;;;;;29.79;45.98;98607.59;2091395;28;19929;-49
2022/07/05 02:26:52;;;;;;;;;;;;;;;29.79;46.36;98604.88;2092224;28;19967;-47
2022/07/05 02:27:54;;;;;;;;;;;;;;;29.80;46.05;98605.69;2090341;28;20386;-49
2022/07/05 02:28:55;;;;;;;;;;;;;;;29.80;46.18;98603.75;2090212;28;19933;-48
2022/07/05 02:29:56;;;;;;;;;;;;;;;29.80;45.94;98605.69;2091584;28;19928;-49
2022/07/05 02:30:57;;;;;;;;;;;;;;;29.79;45.94;98607.59;2091715;28;19959;-49
2022/07/05 02:31:59;;;;;;;;;;;;;;;29.79;45.94;98609.53;2090884;28;20034;-49
2022/07/05 02:32:59;;;;;;;;;;;;;;;29.78;45.92;98608.72;2092312;28;19929;-50
2022/07/05 02:34:01;;;;;;;;;;;;;;;29.80;46.03;98605.69;2090539;28;19932;-49
2022/07/05 02:35:02;;;;;;;;;;;;;;;29.80;46.07;98602.94;2091529;28;19935;-51
2022/07/05 02:36:06;;;;;;;;;;;;;;;29.78;46.04;98603.25;2090231;28;20566;-49
2022/07/05 02:37:07;;;;;;;;;;;;;;;29.78;45.94;98605.13;2088926;28;19931;-50
2022/07/05 02:38:09;;;;;;;;;;;;;;;29.78;46.04;98603.25;2089008;28;19932;-51
2022/07/05 02:39:09;;;;;;;;;;;;;;;29.78;46.11;98605.13;2091926;28;22306;-49
2022/07/05 02:40:13;;;;;;;;;;;;;;;29.79;46.11;98606.78;2091718;28;20028;-48
2022/07/05 02:41:14;;;;;;;;;;;;;;;29.80;45.96;98605.69;2091945;28;19986;-49
2022/07/05 02:42:16;;;;;;;;;;;;;;;29.79;46.09;98598.59;2092301;28;20009;-50
2022/07/05 02:43:16;;;;;;;;;;;;;;;29.78;46.12;98597.78;2090781;28;20294;-49
2022/07/05 02:44:18;;;;;;;;;;;;;;;29.78;46.19;98596.94;2092084;28;19928;-50
2022/07/05 02:45:19;;;;;;;;;;;;;;;29.77;46.10;98596.13;2091954;28;19924;-50
2022/07/05 02:46:20;;;;;;;;;;;;;;;29.77;46.00;98589.84;2087315;28;20052;-49
2022/07/05 02:47:21;;;;;;;;;;;;;;;29.77;46.21;98596.13;2089077;28;19928;-48
2022/07/05 02:48:22;;;;;;;;;;;;;;;29.78;46.25;98596.94;2090936;28;20023;-52
2022/07/05 02:49:24;;;;;;;;;;;;;;;29.77;46.08;98598.84;2090439;28;19931;-49
2022/07/05 02:50:25;;;;;;;;;;;;;;;29.77;45.96;98592.56;2091484;28;19924;-51
2022/07/05 02:51:26;;;;;;;;;;;;;;;29.77;46.05;98603.50;2086664;28;19928;-51
2022/07/05 02:52:27;;;;;;;;;;;;;;;29.77;46.14;98604.31;2084463;28;19936;-53
2022/07/05 02:53:29;;;;;;;;;;;;;;;29.77;46.18;98600.78;2089450;28;19928;-51
2022/07/05 02:54:29;;;;;;;;;;;;;;;29.76;46.04;98599.97;2089666;28;19924;-52
2022/07/05 02:55:32;;;;;;;;;;;;;;;29.76;46.17;98601.88;2090138;28;19928;-51
2022/07/05 02:56:34;;;;;;;;;;;;;;;29.75;46.15;98605.69;2089139;28;20329;-51
2022/07/05 02:57:36;;;;;;;;;;;;;;;29.75;46.03;98605.69;2089583;28;19928;-51
2022/07/05 02:58:38;;;;;;;;;;;;;;;29.76;46.02;98607.34;2091044;28;19928;-51
2022/07/05 02:59:38;;;;;;;;;;;;;;;29.74;46.21;98596.69;2090615;28;19939;-50
2022/07/05 03:00:40;;;;;;;;;;;;;;;29.75;46.15;98605.69;2089821;28;20332;-48
2022/07/05 03:01:40;;;;;;;;;;;;;;;29.76;45.98;98601.88;2090478;28;19928;-53
2022/07/05 03:02:42;;;;;;;;;;;;;;;29.76;46.11;98601.88;2088427;28;19924;-52
2022/07/05 03:03:42;;;;;;;;;;;;;;;29.74;46.18;98599.41;2090598;28;19929;-51
2022/07/05 03:04:44;;;;;;;;;;;;;;;29.76;46.23;98604.63;2090055;28;19939;-50
2022/07/05 03:05:44;;;;;;;;;;;;;;;29.75;46.22;98601.03;2089652;28;20584;-48
2022/07/05 03:06:46;;;;;;;;;;;;;;;29.75;46.11;98603.78;2086504;28;19935;-52
2022/07/05 03:07:47;;;;;;;;;;;;;;;29.77;46.09;98611.72;2088642;28;19925;-49
2022/07/05 03:08:48;;;;;;;;;;;;;;;29.75;46.10;98597.50;2088162;28;19997;-47
2022/07/05 03:09:49;;;;;;;;;;;;;;;29.75;46.13;98602.97;2091862;28;19993;-48
2022/07/05 03:10:52;;;;;;;;;;;;;;;29.75;45.78;98605.69;2089982;28;20447;-48
2022/07/05 03:11:52;;;;;;;;;;;;;;;29.74;46.22;98604.88;2091314;28;19929;-47
2022/07/05 03:12:54;;;;;;;;;;;;;;;29.74;46.11;98606.81;2092799;28;20003;-48
2022/07/05 03:13:55;;;;;;;;;;;;;;;29.74;45.93;98606.81;2092593;28;19928;-49
2022/07/05 03:14:56;;;;;;;;;;;;;;;29.74;46.29;98602.16;2092509;28;20295;-48
2022/07/05 03:15:57;;;;;;;;;;;;;;;29.73;46.06;98602.44;2092409;28;20023;-49
2022/07/05 03:16:58;;;;;;;;;;;;;;;29.72;46.13;98601.59;2091731;28;20014;-50
2022/07/05 03:17:59;;;;;;;;;;;;;;;29.73;46.08;98605.19;2092962;28;19932;-50
2022/07/05 03:19:01;;;;;;;;;;;;;;;29.72;46.29;98603.53;2091362;28;19924;-50
2022/07/05 03:20:01;;;;;;;;;;;;;;;29.72;46.05;98604.34;2090462;28;19932;-47
2022/07/05 03:21:03;;;;;;;;;;;;;;;29.72;46.12;98601.59;2093071;28;19935;-51
2022/07/05 03:22:03;;;;;;;;;;;;;;;29.73;45.90;98592.31;2090120;28;20590;-49
2022/07/05 03:23:05;;;;;;;;;;;;;;;29.73;46.11;98594.25;2089619;28;19928;-49
2022/07/05 03:24:06;;;;;;;;;;;;;;;29.74;46.15;98595.88;2088754;28;19933;-49
2022/07/05 03:25:08;;;;;;;;;;;;;;;29.72;46.06;98595.31;2078523;28;19967;-48
2022/07/05 03:26:10;;;;;;;;;;;;;;;29.72;46.09;98596.13;2086052;28;20015;-51
2022/07/05 03:27:11;;;;;;;;;;;;;;;29.72;46.01;98592.59;2089716;28;19943;-50
2022/07/05 03:28:12;;;;;;;;;;;;;;;29.72;46.26;98593.41;2091154;28;19936;-51
2022/07/05 03:29:13;;;;;;;;;;;;;;;29.72;45.93;98587.13;2090792;28;19925;-50
2022/07/05 03:30:14;;;;;;;;;;;;;;;29.71;46.20;98591.78;2091160;28;19935;-50
2022/07/05 03:31:15;;;;;;;;;;;;;;;29.72;46.17;98589.84;2089757;28;20334;-50
2022/07/05 03:32:16;;;;;;;;;;;;;;;29.71;45.99;98590.97;2086337;28;20635;-52
2022/07/05 03:33:17;;;;;;;;;;;;;;;29.72;46.13;98587.13;2089798;28;19924;-49
2022/07/05 03:34:18;;;;;;;;;;;;;;;29.71;46.00;98585.50;2089913;28;19928;-48
2022/07/05 03:35:20;;;;;;;;;;;;;;;29.71;46.32;98586.31;2090293;28;20119;-52
2022/07/05 03:36:21;;;;;;;;;;;;;;;29.72;46.12;98587.13;2089283;28;19932;-47
2022/07/05 03:37:22;;;;;;;;;;;;;;;29.72;46.03;98589.84;2091096;28;19925;-51
2022/07/05 03:38:23;;;;;;;;;;;;;;;29.72;46.21;98581.66;2086821;28;20007;-51
2022/07/05 03:39:24;;;;;;;;;;;;;;;29.71;46.03;98588.22;2088618;28;19928;-49
2022/07/05 03:40:26;;;;;;;;;;;;;;;29.72;46.13;98584.38;2089834;28;19985;-50
2022/07/05 03:41:28;;;;;;;;;;;;;;;29.70;46.16;98589.31;2089415;28;19935;-50
2022/07/05 03:42:29;;;;;;;;;;;;;;;29.71;46.15;98585.50;2086878;28;19967;-50
2022/07/05 03:43:30;;;;;;;;;;;;;;;29.71;46.17;98588.22;2089791;28;19933;-51
2022/07/05 03:44:32;;;;;;;;;;;;;;;29.71;46.16;98590.97;2090721;28;20022;-51
2022/07/05 03:45:33;;;;;;;;;;;;;;;29.71;46.16;98585.50;2089421;28;19928;-50
2022/07/05 03:46:34;;;;;;;;;;;;;;;29.70;45.91;98584.69;2087351;28;19928;-51
2022/07/05 03:47:35;;;;;;;;;;;;;;;29.70;46.17;98587.41;2088009;28;19985;-52
2022/07/05 03:48:36;;;;;;;;;;;;;;;29.70;46.20;98583.84;2087513;28;19993;-47
2022/07/05 03:49:37;;;;;;;;;;;;;;;29.69;45.99;98588.50;2090255;28;19936;-49
2022/07/05 03:50:38;;;;;;;;;;;;;;;29.70;46.08;98589.31;2088787;28;19967;-52
2022/07/05 03:51:39;;;;;;;;;;;;;;;29.69;46.08;98590.41;2086645;28;19924;-48
2022/07/05 03:52:41;;;;;;;;;;;;;;;29.69;46.18;98593.16;2086902;28;20952;-50
2022/07/05 03:53:41;;;;;;;;;;;;;;;29.68;46.22;98589.59;2087318;28;19928;-49
2022/07/05 03:54:44;;;;;;;;;;;;;;;29.69;46.10;98593.16;2087852;28;20007;-49
2022/07/05 03:55:45;;;;;;;;;;;;;;;29.69;46.21;98601.34;2088711;28;19932;-47
2022/07/05 03:56:48;;;;;;;;;;;;;;;29.68;46.04;98600.53;2085925;28;20043;-48
2022/07/05 03:57:48;;;;;;;;;;;;;;;29.69;46.16;98604.91;2089486;28;19935;-48
2022/07/05 03:58:50;;;;;;;;;;;;;;;29.69;46.04;98604.06;2088796;28;19929;-48
2022/07/05 03:59:50;;;;;;;;;;;;;;;29.70;46.16;98611.16;2089736;28;19932;-51
2022/07/05 04:00:52;;;;;;;;;;;;;;;29.69;46.14;98604.06;2086519;28;19924;-50
2022/07/05 04:01:53;;;;;;;;;;;;;;;29.68;46.09;98600.53;2089531;28;20039;-49
2022/07/05 04:02:54;;;;;;;;;;;;;;;29.69;45.98;98601.34;2086138;28;19933;-48
2022/07/05 04:03:55;;;;;;;;;;;;;;;29.68;46.07;98602.44;2085497;28;19924;-49
2022/07/05 04:04:56;;;;;;;;;;;;;;;29.69;46.37;98598.63;2087945;28;19928;-48
2022/07/05 04:05:57;;;;;;;;;;;;;;;29.68;46.04;98607.91;2089108;28;20012;-53
2022/07/05 04:06:58;;;;;;;;;;;;;;;29.69;46.26;98609.53;2083788;28;20066;-52
2022/07/05 04:07:59;;;;;;;;;;;;;;;29.68;46.04;98610.66;2088397;28;19929;-49
2022/07/05 04:09:00;;;;;;;;;;;;;;;29.68;46.21;98602.44;2085559;28;20079;-53
2022/07/05 04:10:01;;;;;;;;;;;;;;;29.67;46.06;98612.56;2089427;28;19925;-46
2022/07/05 04:11:02;;;;;;;;;;;;;;;29.67;46.00;98618.03;2090149;28;20346;-51
2022/07/05 04:12:05;;;;;;;;;;;;;;;29.68;46.05;98618.84;2090851;28;20507;-49
2022/07/05 04:13:07;;;;;;;;;;;;;;;29.67;46.13;98615.31;2088410;28;19928;-49
2022/07/05 04:14:09;;;;;;;;;;;;;;;29.67;46.17;98628.13;2088533;28;20255;-50
2022/07/05 04:15:10;;;;;;;;;;;;;;;29.66;46.31;98621.03;2085495;28;21409;-50
2022/07/05 04:16:11;;;;;;;;;;;;;;;29.66;46.33;98631.97;2088023;28;19928;-48
2022/07/05 04:17:12;;;;;;;;;;;;;;;29.66;46.20;98631.97;2088878;28;19938;-49
2022/07/05 04:18:13;;;;;;;;;;;;;;;29.66;46.16;98642.91;2090488;28;19924;-48
2022/07/05 04:19:15;;;;;;;;;;;;;;;29.66;46.13;98640.16;2089367;28;19924;-50
2022/07/05 04:20:15;;;;;;;;;;;;;;;29.67;45.99;98647.25;2087880;28;20531;-50
2022/07/05 04:21:17;;;;;;;;;;;;;;;29.67;46.12;98641.78;2086476;28;20019;-51
2022/07/05 04:22:17;;;;;;;;;;;;;;;29.66;46.26;98640.16;2088216;28;20960;-49
2022/07/05 04:23:19;;;;;;;;;;;;;;;29.66;46.08;98643.72;2088596;28;19933;-50
2022/07/05 04:24:21;;;;;;;;;;;;;;;29.66;46.21;98640.97;2089480;28;20007;-50
2022/07/05 04:25:21;;;;;;;;;;;;;;;29.67;46.11;98644.53;2090580;28;19928;-50
2022/07/05 04:26:23;;;;;;;;;;;;;;;29.65;46.18;98639.34;2089604;28;20001;-50
2022/07/05 04:27:25;;;;;;;;;;;;;;;29.66;46.16;98637.44;2087556;28;21023;-49
2022/07/05 04:28:29;;;;;;;;;;;;;;;29.64;46.18;98648.63;2090037;28;19977;-47
2022/07/05 04:29:29;;;;;;;;;;;;;;;29.64;46.14;98647.81;2088344;28;20636;-49
2022/07/05 04:30:31;;;;;;;;;;;;;;;29.65;46.35;98650.28;2089022;28;19932;-48
2022/07/05 04:31:32;;;;;;;;;;;;;;;29.66;46.11;98656.56;2086101;28;19932;-49
2022/07/05 04:32:34;;;;;;;;;;;;;;;29.64;46.12;98650.56;2092178;28;20023;-48
2022/07/05 04:33:35;;;;;;;;;;;;;;;29.64;46.17;98645.09;2090505;28;19947;-49
2022/07/05 04:34:36;;;;;;;;;;;;;;;29.66;46.18;98648.38;2089299;28;20019;-48
2022/07/05 04:35:37;;;;;;;;;;;;;;;29.64;46.14;98645.09;2091225;28;19936;-47
2022/07/05 04:36:40;;;;;;;;;;;;;;;29.64;46.34;98645.91;2087043;28;19929;-48
2022/07/05 04:37:41;;;;;;;;;;;;;;;29.64;46.22;98637.69;2089197;28;19929;-50
2022/07/05 04:38:42;;;;;;;;;;;;;;;29.62;46.08;98637.97;2089691;28;19924;-48
2022/07/05 04:39:43;;;;;;;;;;;;;;;29.64;46.29;98639.63;2090937;28;19932;-47
2022/07/05 04:40:44;;;;;;;;;;;;;;;29.64;46.12;98642.34;2090871;28;19940;-51
2022/07/05 04:41:45;;;;;;;;;;;;;;;29.64;46.20;98642.34;2088453;28;20327;-49
2022/07/05 04:42:48;;;;;;;;;;;;;;;29.64;46.24;98639.63;2091700;28;19939;-47
2022/07/05 04:43:48;;;;;;;;;;;;;;;29.64;46.06;98639.63;2090334;28;19935;-49
2022/07/05 04:44:50;;;;;;;;;;;;;;;29.64;46.25;98639.63;2089973;28;19928;-47
2022/07/05 04:45:50;;;;;;;;;;;;;;;29.64;46.14;98637.69;2089163;28;19925;-48
2022/07/05 04:46:52;;;;;;;;;;;;;;;29.62;46.15;98637.97;2090752;28;19928;-48
2022/07/05 04:47:53;;;;;;;;;;;;;;;29.63;46.13;98638.81;2091103;28;20272;-50
2022/07/05 04:48:54;;;;;;;;;;;;;;;29.65;46.19;98647.56;2088644;28;19931;-49
2022/07/05 04:49:57;;;;;;;;;;;;;;;29.65;46.12;98646.75;2091431;28;21335;-48
2022/07/05 04:50:58;;;;;;;;;;;;;;;29.62;46.28;98643.44;2091264;28;19933;-47
2022/07/05 04:51:59;;;;;;;;;;;;;;;29.61;46.21;98641.81;2088325;28;19928;-48
2022/07/05 04:53:00;;;;;;;;;;;;;;;29.62;46.19;98643.44;2090267;28;19924;-48
2022/07/05 04:54:01;;;;;;;;;;;;;;;29.63;46.01;98647.00;2091758;28;19932;-50
2022/07/05 04:55:04;;;;;;;;;;;;;;;29.62;46.14;98640.69;2091717;28;19928;-50
2022/07/05 04:56:05;;;;;;;;;;;;;;;29.63;46.19;98644.28;2092302;28;19928;-50
2022/07/05 04:57:07;;;;;;;;;;;;;;;29.63;46.17;98641.53;2090727;28;20285;-50
2022/07/05 04:58:09;;;;;;;;;;;;;;;29.62;46.12;98639.88;2091923;28;19924;-49
2022/07/05 04:59:10;;;;;;;;;;;;;;;29.63;46.21;98641.53;2091130;28;19932;-51
2022/07/05 05:00:12;;;;;;;;;;;;;;;29.62;46.22;98646.16;2091447;28;20305;-52
2022/07/05 05:01:14;;;;;;;;;;;;;;;29.62;46.11;98648.91;2090149;28;20093;-49
2022/07/05 05:02:15;;;;;;;;;;;;;;;29.62;46.07;98648.06;2091998;28;22070;-50
2022/07/05 05:03:16;;;;;;;;;;;;;;;29.61;46.07;98652.72;2090909;28;19928;-53
2022/07/05 05:04:17;;;;;;;;;;;;;;;29.61;46.12;98647.28;2091538;28;19931;-49
2022/07/05 05:05:18;;;;;;;;;;;;;;;29.61;46.34;98647.28;2089863;28;19934;-51
2022/07/05 05:06:19;;;;;;;;;;;;;;;29.61;46.22;98652.72;2088824;28;20619;-48
2022/07/05 05:07:20;;;;;;;;;;;;;;;29.61;46.20;98652.72;2088800;28;20027;-53
2022/07/05 05:08:21;;;;;;;;;;;;;;;29.61;46.26;98649.16;2092057;28;19932;-53
2022/07/05 05:09:23;;;;;;;;;;;;;;;29.61;46.13;98655.47;2090530;28;20051;-50
2022/07/05 05:10:24;;;;;;;;;;;;;;;29.62;46.21;98650.81;2088687;28;19967;-53
2022/07/05 05:11:25;;;;;;;;;;;;;;;29.61;46.15;98652.72;2089826;28;19931;-49
2022/07/05 05:12:26;;;;;;;;;;;;;;;29.59;46.35;98649.44;2088831;28;19928;-49
2022/07/05 05:13:29;;;;;;;;;;;;;;;29.61;46.38;98650.00;2086475;28;21856;-48
2022/07/05 05:14:30;;;;;;;;;;;;;;;29.61;46.30;98655.47;2091890;28;19929;-49
2022/07/05 05:15:31;;;;;;;;;;;;;;;29.60;46.28;98644.78;2092490;28;20350;-47
2022/07/05 05:16:33;;;;;;;;;;;;;;;29.61;46.02;98650.00;2091637;28;19924;-48
2022/07/05 05:17:37;;;;;;;;;;;;;;;29.60;46.07;98651.06;2092433;28;19929;-48
2022/07/05 05:18:38;;;;;;;;;;;;;;;29.61;46.12;98652.72;2091795;28;20005;-50
2022/07/05 05:19:39;;;;;;;;;;;;;;;29.60;46.14;98647.53;2092724;28;19928;-49
2022/07/05 05:20:40;;;;;;;;;;;;;;;29.59;46.07;98643.97;2091028;28;19979;-49